Time;durP1;ratioP1;P1;durP2;ratioP2;P2;SDS_P1;SDS_P2;PMS_P1;PMS_P2;Temp;Humidity;BMP_temperature;BMP_pressure;BME280_temperature;BME280_humidity;BME280_pressure;Samples;Min_cycle;Max_cycle;Signal;HPM_P1;HPM_P2
2023/05/29 00:01:13;;;;;;;;;;;;;;;;;;5034223;28;20303;-83
2023/05/29 00:03:38;;;;;;;;;;;;;;;;;;5027762;28;19909;-83
2023/05/29 00:06:04;;;;;;;;;;;;;;;;;;5034923;28;20039;-83
2023/05/29 00:08:29;;;;;;;;;;;;;;;;;;5033165;28;19920;-83
2023/05/29 00:10:55;;;;;;;;;;;;;;;;;;5032775;28;19912;-83
2023/05/29 00:13:20;;;;;;;;;;;;;;;;;;5035627;28;20317;-83
2023/05/29 00:15:45;;;;;;;;;;;;;;;;;;5035207;28;19984;-83
2023/05/29 00:18:11;;;;;;;;;;;;;;;;;;5033741;28;19909;-83
2023/05/29 00:20:37;;;;;;;;;;;;;;;;;;5035038;28;19936;-83
2023/05/29 00:23:04;;;;;;;;;;;;;;;;;;5033759;28;19909;-83
2023/05/29 00:25:29;;;;;;;;;;;;;;;;;;5034171;28;20383;-83
2023/05/29 00:27:54;;;;;;;;;;;;;;;;;;5036814;28;19909;-84
2023/05/29 00:30:20;;;;;;;;;;;;;;;;;;5034447;28;19933;-84
2023/05/29 00:32:45;;;;;;;;;;;;;;;;;;5019299;28;19913;-84
2023/05/29 00:35:11;;;;;;;;;;;;;;;;;;5019754;28;19956;-83
2023/05/29 00:37:36;;;;;;;;;;;;;;;;;;5036953;28;20008;-84
2023/05/29 00:40:01;;;;;;;;;;;;;;;;;;5036181;28;20509;-83
2023/05/29 00:42:27;;;;;;;;;;;;;;;;;;5020087;28;19908;-83
2023/05/29 00:44:52;;;;;;;;;;;;;;;;;;5020554;28;20341;-82
2023/05/29 00:47:17;;;;;;;;;;;;;;;;;;5016588;28;19931;-82
2023/05/29 00:49:43;;;;;;;;;;;;;;;;;;5048799;28;19956;-82
2023/05/29 00:52:08;;;;;;;;;;;;;;;;;;5017126;28;19909;-83
2023/05/29 00:54:33;;;;;;;;;;;;;;;;;;5055966;28;19913;-83
2023/05/29 00:56:59;;;;;;;;;;;;;;;;;;5040244;28;19916;-83
2023/05/29 00:59:24;;;;;;;;;;;;;;;;;;5034623;28;19913;-83
2023/05/29 01:01:54;;;;;;;;;;;;;;;;;;5035085;28;20337;-83
2023/05/29 01:04:19;;;;;;;;;;;;;;;;;;5076401;28;19960;-83
2023/05/29 01:06:45;;;;;;;;;;;;;;;;;;5016137;28;20418;-83
2023/05/29 01:09:10;;;;;;;;;;;;;;;;;;5037768;28;19920;-83
2023/05/29 01:11:36;;;;;;;;;;;;;;;;;;5039280;28;20004;-83
2023/05/29 01:14:01;;;;;;;;;;;;;;;;;;5033982;28;19920;-83
2023/05/29 01:16:27;;;;;;;;;;;;;;;;;;5044328;28;20414;-83
2023/05/29 01:18:52;;;;;;;;;;;;;;;;;;5043742;28;19920;-83
2023/05/29 01:21:18;;;;;;;;;;;;;;;;;;5033563;28;19909;-83
2023/05/29 01:23:43;;;;;;;;;;;;;;;;;;5031070;28;19924;-83
2023/05/29 01:26:08;;;;;;;;;;;;;;;;;;5041034;28;19916;-84
2023/05/29 01:28:35;;;;;;;;;;;;;;;;;;5041002;28;19928;-83
2023/05/29 01:31:01;;;;;;;;;;;;;;;;;;5042378;28;19913;-82
2023/05/29 01:33:26;;;;;;;;;;;;;;;;;;5049157;28;19916;-83
2023/05/29 01:35:51;;;;;;;;;;;;;;;;;;5047447;28;19921;-82
2023/05/29 01:38:17;;;;;;;;;;;;;;;;;;5034237;28;19923;-82
2023/05/29 01:40:42;;;;;;;;;;;;;;;;;;5032014;28;20003;-84
2023/05/29 01:43:08;;;;;;;;;;;;;;;;;;5034437;28;19913;-84
2023/05/29 01:45:33;;;;;;;;;;;;;;;;;;5035886;28;19955;-84
2023/05/29 01:47:58;;;;;;;;;;;;;;;;;;5034054;28;19913;-84
2023/05/29 01:50:24;;;;;;;;;;;;;;;;;;5032505;28;19909;-83
2023/05/29 01:52:49;;;;;;;;;;;;;;;;;;5032778;28;19913;-83
2023/05/29 01:55:15;;;;;;;;;;;;;;;;;;5032082;28;19916;-83
2023/05/29 01:57:41;;;;;;;;;;;;;;;;;;5033735;28;20446;-83
2023/05/29 02:00:08;;;;;;;;;;;;;;;;;;5015318;28;19909;-83
2023/05/29 02:02:40;;;;;;;;;;;;;;;;;;5044170;28;19959;-83
2023/05/29 02:05:05;;;;;;;;;;;;;;;;;;5033883;28;19913;-83
2023/05/29 02:07:30;;;;;;;;;;;;;;;;;;5032075;28;19956;-83
2023/05/29 02:09:56;;;;;;;;;;;;;;;;;;5032948;28;19917;-83
2023/05/29 02:12:21;;;;;;;;;;;;;;;;;;5044017;28;19910;-83
2023/05/29 02:14:47;;;;;;;;;;;;;;;;;;5060925;28;19949;-83
2023/05/29 02:17:12;;;;;;;;;;;;;;;;;;5034597;28;19999;-83
2023/05/29 02:19:37;;;;;;;;;;;;;;;;;;5038314;28;19913;-83
2023/05/29 02:22:03;;;;;;;;;;;;;;;;;;5036090;28;19920;-83
2023/05/29 02:24:28;;;;;;;;;;;;;;;;;;5036816;28;20276;-83
2023/05/29 02:26:54;;;;;;;;;;;;;;;;;;5038195;28;19909;-83
2023/05/29 02:29:20;;;;;;;;;;;;;;;;;;5037306;28;20303;-83
2023/05/29 02:31:45;;;;;;;;;;;;;;;;;;5019019;28;20007;-83
2023/05/29 02:34:11;;;;;;;;;;;;;;;;;;5037147;28;19917;-83
2023/05/29 02:36:37;;;;;;;;;;;;;;;;;;5037217;28;19931;-83
2023/05/29 02:39:02;;;;;;;;;;;;;;;;;;5036824;28;19920;-83
2023/05/29 02:41:28;;;;;;;;;;;;;;;;;;5036942;28;19913;-83
2023/05/29 02:43:53;;;;;;;;;;;;;;;;;;5034701;28;20020;-82
2023/05/29 02:46:21;;;;;;;;;;;;;;;;;;5035562;28;20400;-83
2023/05/29 02:48:48;;;;;;;;;;;;;;;;;;5035458;28;19988;-83
2023/05/29 02:51:13;;;;;;;;;;;;;;;;;;5041247;28;20393;-84
2023/05/29 02:53:39;;;;;;;;;;;;;;;;;;5039722;28;20384;-84
2023/05/29 02:56:04;;;;;;;;;;;;;;;;;;5054915;28;19958;-84
2023/05/29 02:58:29;;;;;;;;;;;;;;;;;;5036446;28;19960;-83
2023/05/29 03:00:55;;;;;;;;;;;;;;;;;;5047307;28;19938;-83
2023/05/29 03:03:20;;;;;;;;;;;;;;;;;;5041927;28;19924;-83
2023/05/29 03:05:46;;;;;;;;;;;;;;;;;;5047312;28;19908;-83
2023/05/29 03:08:12;;;;;;;;;;;;;;;;;;5041841;28;20295;-84
2023/05/29 03:10:37;;;;;;;;;;;;;;;;;;5042898;28;19909;-83
2023/05/29 03:13:03;;;;;;;;;;;;;;;;;;5042621;28;19917;-83
2023/05/29 03:15:28;;;;;;;;;;;;;;;;;;5047610;28;19908;-84
2023/05/29 03:17:54;;;;;;;;;;;;;;;;;;5043934;28;19913;-83
2023/05/29 03:20:24;;;;;;;;;;;;;;;;;;5043665;28;19976;-83
2023/05/29 03:22:52;;;;;;;;;;;;;;;;;;5034960;28;19913;-83
2023/05/29 03:25:18;;;;;;;;;;;;;;;;;;5034416;28;19916;-83
2023/05/29 03:27:44;;;;;;;;;;;;;;;;;;5034836;28;20325;-84
2023/05/29 03:30:12;;;;;;;;;;;;;;;;;;5046341;28;19944;-82
2023/05/29 03:32:37;;;;;;;;;;;;;;;;;;5034447;28;19935;-82
2023/05/29 03:35:03;;;;;;;;;;;;;;;;;;5034704;28;19921;-83
2023/05/29 03:37:29;;;;;;;;;;;;;;;;;;5028286;28;19932;-84
2023/05/29 03:39:54;;;;;;;;;;;;;;;;;;5039175;28;19915;-84
2023/05/29 03:42:20;;;;;;;;;;;;;;;;;;5047199;28;19913;-83
2023/05/29 03:44:46;;;;;;;;;;;;;;;;;;5034545;28;19909;-83
2023/05/29 03:47:11;;;;;;;;;;;;;;;;;;5034946;28;19921;-83
2023/05/29 03:49:37;;;;;;;;;;;;;;;;;;5034060;28;19978;-83
2023/05/29 03:52:02;;;;;;;;;;;;;;;;;;5034625;28;20253;-83
2023/05/29 03:54:28;;;;;;;;;;;;;;;;;;5035600;28;19951;-84
2023/05/29 03:56:53;;;;;;;;;;;;;;;;;;5034478;28;19913;-84
2023/05/29 03:59:18;;;;;;;;;;;;;;;;;;5034602;28;19909;-83
2023/05/29 04:01:45;;;;;;;;;;;;;;;;;;5034626;28;20011;-83
2023/05/29 04:04:12;;;;;;;;;;;;;;;;;;5034172;28;20364;-83
2023/05/29 04:06:38;;;;;;;;;;;;;;;;;;5035709;28;19913;-84
2023/05/29 04:09:04;;;;;;;;;;;;;;;;;;5035066;28;19913;-83
2023/05/29 04:11:29;;;;;;;;;;;;;;;;;;5034821;28;19913;-83
2023/05/29 04:13:55;;;;;;;;;;;;;;;;;;5034439;28;19909;-82
2023/05/29 04:16:20;;;;;;;;;;;;;;;;;;5035111;28;20417;-83
2023/05/29 04:18:46;;;;;;;;;;;;;;;;;;5034584;28;19909;-84
2023/05/29 04:21:12;;;;;;;;;;;;;;;;;;5034370;28;20298;-84
2023/05/29 04:23:37;;;;;;;;;;;;;;;;;;5031731;28;19916;-85
2023/05/29 04:26:05;;;;;;;;;;;;;;;;;;5072146;28;19944;-84
2023/05/29 04:28:30;;;;;;;;;;;;;;;;;;5050608;28;19913;-83
2023/05/29 04:30:56;;;;;;;;;;;;;;;;;;5034955;28;19913;-80
2023/05/29 04:33:23;;;;;;;;;;;;;;;;;;5034025;28;19917;-85
2023/05/29 04:35:49;;;;;;;;;;;;;;;;;;5018099;28;19912;-85
2023/05/29 04:38:16;;;;;;;;;;;;;;;;;;5033752;28;19920;-83
2023/05/29 04:40:41;;;;;;;;;;;;;;;;;;5032545;28;20039;-86
2023/05/29 04:43:07;;;;;;;;;;;;;;;;;;5035130;28;20007;-84
2023/05/29 04:45:51;;;;;;;;;;;;;;;;;;5032895;28;19998;-84
2023/05/29 04:48:41;;;;;;;;;;;;;;;;;;5034901;28;20304;-84
2023/05/29 04:51:10;;;;;;;;;;;;;;;;;;5033920;28;19913;-87
2023/05/29 04:53:36;;;;;;;;;;;;;;;;;;5033487;28;19920;-87
2023/05/29 04:56:01;;;;;;;;;;;;;;;;;;5047452;28;20003;-87
2023/05/29 04:58:26;;;;;;;;;;;;;;;;;;5035179;28;19932;-86
2023/05/29 05:00:52;;;;;;;;;;;;;;;;;;5034715;28;20007;-86
2023/05/29 05:03:17;;;;;;;;;;;;;;;;;;5034204;28;19909;-82
2023/05/29 05:05:43;;;;;;;;;;;;;;;;;;5033759;28;19924;-85
2023/05/29 05:08:08;;;;;;;;;;;;;;;;;;5037126;28;19909;-83
2023/05/29 05:10:34;;;;;;;;;;;;;;;;;;5038784;28;19920;-82
2023/05/29 05:13:02;;;;;;;;;;;;;;;;;;5032872;28;19921;-82
2023/05/29 05:15:27;;;;;;;;;;;;;;;;;;5016116;28;19912;-82
2023/05/29 05:17:53;;;;;;;;;;;;;;;;;;5032962;28;20291;-83
2023/05/29 05:20:18;;;;;;;;;;;;;;;;;;5032152;28;20412;-82
2023/05/29 05:22:47;;;;;;;;;;;;;;;;;;5033674;28;19908;-83
2023/05/29 05:25:13;;;;;;;;;;;;;;;;;;5015875;28;19967;-83
2023/05/29 05:27:39;;;;;;;;;;;;;;;;;;5034128;28;20356;-82
2023/05/29 05:30:05;;;;;;;;;;;;;;;;;;5034657;28;19921;-83
2023/05/29 05:32:30;;;;;;;;;;;;;;;;;;5031672;28;19917;-83
2023/05/29 05:35:03;;;;;;;;;;;;;;;;;;5035827;28;20334;-81
2023/05/29 05:37:28;;;;;;;;;;;;;;;;;;5034967;28;19921;-85
2023/05/29 05:39:54;;;;;;;;;;;;;;;;;;5037295;28;19916;-82
2023/05/29 05:42:20;;;;;;;;;;;;;;;;;;5034317;28;19917;-83
2023/05/29 05:44:53;;;;;;;;;;;;;;;;;;5030859;28;19916;-83
2023/05/29 05:47:18;;;;;;;;;;;;;;;;;;5035425;28;19929;-83
2023/05/29 05:49:43;;;;;;;;;;;;;;;;;;5038743;28;19917;-81
2023/05/29 07:20:48;;;;;;;;;;;;;;;;;;5029239;28;19924;-82
2023/05/29 07:23:32;;;;;;;;;;;;;;;;;;5040865;28;19966;-83
2023/05/29 07:25:57;;;;;;;;;;;;;;;;;;5046588;28;20019;-83
2023/05/29 07:28:26;;;;;;;;;;;;;;;;;;5036307;28;19984;-83
2023/05/29 07:30:51;;;;;;;;;;;;;;;;;;5035720;28;19913;-83
2023/05/29 07:33:17;;;;;;;;;;;;;;;;;;5039512;28;19966;-83
2023/05/29 07:35:43;;;;;;;;;;;;;;;;;;5021741;28;19966;-85
2023/05/29 07:38:09;;;;;;;;;;;;;;;;;;5041841;28;19909;-82
2023/05/29 07:40:34;;;;;;;;;;;;;;;;;;5038272;28;20351;-83
2023/05/29 07:43:11;;;;;;;;;;;;;;;;;;5034375;28;19966;-83
2023/05/29 07:45:46;;;;;;;;;;;;;;;;;;5039087;28;20445;-83
2023/05/29 07:48:12;;;;;;;;;;;;;;;;;;5036210;28;19912;-82
2023/05/29 07:50:37;;;;;;;;;;;;;;;;;;5038993;28;19913;-83
2023/05/29 07:53:03;;;;;;;;;;;;;;;;;;5040697;28;19919;-83
2023/05/29 07:55:28;;;;;;;;;;;;;;;;;;5039710;28;19909;-83
2023/05/29 07:57:54;;;;;;;;;;;;;;;;;;5042553;28;19917;-83
2023/05/29 08:00:19;;;;;;;;;;;;;;;;;;5039578;28;19935;-82
2023/05/29 08:02:45;;;;;;;;;;;;;;;;;;5034934;28;19923;-83
2023/05/29 08:05:36;;;;;;;;;;;;;;;;;;5040087;28;19956;-83
2023/05/29 08:08:08;;;;;;;;;;;;;;;;;;5033566;28;19913;-82
2023/05/29 08:10:34;;;;;;;;;;;;;;;;;;5033067;28;19916;-81
2023/05/29 08:13:00;;;;;;;;;;;;;;;;;;5034599;28;19908;-82
2023/05/29 08:15:26;;;;;;;;;;;;;;;;;;5033957;28;20343;-82
2023/05/29 08:17:51;;;;;;;;;;;;;;;;;;5033885;28;19913;-84
2023/05/29 08:20:16;;;;;;;;;;;;;;;;;;5034603;28;20375;-83
2023/05/29 08:22:42;;;;;;;;;;;;;;;;;;5033621;28;20376;-84
2023/05/29 08:25:08;;;;;;;;;;;;;;;;;;5034821;28;19920;-82
2023/05/29 08:27:33;;;;;;;;;;;;;;;;;;5032953;28;19916;-83
2023/05/29 08:29:58;;;;;;;;;;;;;;;;;;5034066;28;19916;-83
2023/05/29 08:32:24;;;;;;;;;;;;;;;;;;5035158;28;19909;-82
2023/05/29 08:34:49;;;;;;;;;;;;;;;;;;5037251;28;20324;-84
2023/05/29 08:37:23;;;;;;;;;;;;;;;;;;5091284;27;20445;-83
2023/05/29 08:39:49;;;;;;;;;;;;;;;;;;5089328;28;20015;-83
2023/05/29 08:42:14;;;;;;;;;;;;;;;;;;5090142;28;19974;-83
2023/05/29 08:44:40;;;;;;;;;;;;;;;;;;5091794;28;19916;-81
2023/05/29 08:47:06;;;;;;;;;;;;;;;;;;5091432;28;19916;-83
2023/05/29 08:49:32;;;;;;;;;;;;;;;;;;5090014;28;19995;-84
2023/05/29 08:51:57;;;;;;;;;;;;;;;;;;5091151;28;19926;-82
2023/05/29 08:54:22;;;;;;;;;;;;;;;;;;5090703;28;19916;-85
2023/05/29 08:56:48;;;;;;;;;;;;;;;;;;5090412;28;20305;-84
2023/05/29 08:59:13;;;;;;;;;;;;;;;;;;5090229;28;20471;-83
2023/05/29 09:01:38;;;;;;;;;;;;;;;;;;5090553;28;19912;-83
2023/05/29 09:04:04;;;;;;;;;;;;;;;;;;5089677;28;19920;-83
2023/05/29 09:55:21;;;;;;;;;;;;;;;;;;5076644;28;19967;-84
2023/05/29 09:57:48;;;;;;;;;;;;;;;;;;5096040;28;20390;-84
2023/05/29 10:00:13;;;;;;;;;;;;;;;;;;5094557;28;19916;-84
2023/05/29 10:02:40;;;;;;;;;;;;;;;;;;5096390;28;19920;-85
2023/05/29 10:05:05;;;;;;;;;;;;;;;;;;5108412;28;20034;-83
2023/05/29 10:07:32;;;;;;;;;;;;;;;;;;5093401;28;19924;-82
2023/05/29 10:09:57;;;;;;;;;;;;;;;;;;5085991;28;19912;-85
2023/05/29 10:12:22;;;;;;;;;;;;;;;;;;5094995;28;19920;-83
2023/05/29 10:14:48;;;;;;;;;;;;;;;;;;5095417;28;19919;-85
2023/05/29 10:17:13;;;;;;;;;;;;;;;;;;5062012;28;20257;-83
2023/05/29 10:19:38;;;;;;;;;;;;;;;;;;5089606;28;19956;-84
2023/05/29 10:22:04;;;;;;;;;;;;;;;;;;5079789;28;20338;-84
2023/05/29 10:24:29;;;;;;;;;;;;;;;;;;5094847;28;19912;-84
2023/05/29 10:26:55;;;;;;;;;;;;;;;;;;5098087;28;19916;-83
2023/05/29 10:29:20;;;;;;;;;;;;;;;;;;5094598;28;19912;-82
2023/05/29 10:31:45;;;;;;;;;;;;;;;;;;5086380;28;20145;-83
2023/05/29 10:34:11;;;;;;;;;;;;;;;;;;5108207;28;19923;-84
2023/05/29 10:36:37;;;;;;;;;;;;;;;;;;5098739;28;20019;-83
2023/05/29 10:39:02;;;;;;;;;;;;;;;;;;5095364;28;19957;-86
2023/05/29 10:41:27;;;;;;;;;;;;;;;;;;5071059;28;19916;-85
2023/05/29 10:43:53;;;;;;;;;;;;;;;;;;5094528;28;20511;-85
2023/05/29 10:46:18;;;;;;;;;;;;;;;;;;5087048;28;20386;-84
2023/05/29 10:48:43;;;;;;;;;;;;;;;;;;5096830;28;19916;-84
2023/05/29 10:51:09;;;;;;;;;;;;;;;;;;5094434;28;20069;-84
2023/05/29 10:53:39;;;;;;;;;;;;;;;;;;5095645;28;19920;-83
2023/05/29 10:56:05;;;;;;;;;;;;;;;;;;5083220;28;19975;-84
2023/05/29 10:58:31;;;;;;;;;;;;;;;;;;5080901;28;19974;-84
2023/05/29 11:00:58;;;;;;;;;;;;;;;;;;5072965;28;19916;-83
2023/05/29 11:03:24;;;;;;;;;;;;;;;;;;5072477;28;19924;-84
2023/05/29 11:05:49;;;;;;;;;;;;;;;;;;5072160;28;19922;-84
2023/05/29 11:08:14;;;;;;;;;;;;;;;;;;5073097;28;19935;-83
2023/05/29 11:10:40;;;;;;;;;;;;;;;;;;5072412;28;19916;-83
2023/05/29 11:13:07;;;;;;;;;;;;;;;;;;5075076;28;19958;-83
2023/05/29 11:15:32;;;;;;;;;;;;;;;;;;5074482;28;19920;-84
2023/05/29 11:18:00;;;;;;;;;;;;;;;;;;5073493;28;19920;-84
2023/05/29 11:20:25;;;;;;;;;;;;;;;;;;5075602;28;19917;-84
2023/05/29 11:22:50;;;;;;;;;;;;;;;;;;5079057;28;19919;-84
2023/05/29 11:25:16;;;;;;;;;;;;;;;;;;5071109;28;19931;-84
2023/05/29 11:27:41;;;;;;;;;;;;;;;;;;5072939;28;20006;-83
2023/05/29 11:30:06;;;;;;;;;;;;;;;;;;5070994;28;19917;-84
2023/05/29 11:32:32;;;;;;;;;;;;;;;;;;5073740;28;19962;-84
2023/05/29 11:34:59;;;;;;;;;;;;;;;;;;5078136;28;19916;-84
2023/05/29 11:37:24;;;;;;;;;;;;;;;;;;5074646;28;20320;-83
2023/05/29 11:39:49;;;;;;;;;;;;;;;;;;5072834;28;19962;-83
2023/05/29 11:42:15;;;;;;;;;;;;;;;;;;5073200;28;19923;-82
2023/05/29 11:44:40;;;;;;;;;;;;;;;;;;5072803;28;19916;-85
2023/05/29 11:47:05;;;;;;;;;;;;;;;;;;5075672;28;19920;-84
2023/05/29 11:49:32;;;;;;;;;;;;;;;;;;5076109;28;19924;-83
2023/05/29 11:51:58;;;;;;;;;;;;;;;;;;5075384;28;19912;-83
2023/05/29 11:54:23;;;;;;;;;;;;;;;;;;5071968;28;19921;-84
2023/05/29 11:56:48;;;;;;;;;;;;;;;;;;5089353;28;19946;-82
2023/05/29 11:59:14;;;;;;;;;;;;;;;;;;5081229;28;19935;-84
2023/05/29 12:01:39;;;;;;;;;;;;;;;;;;5081837;28;19934;-83
2023/05/29 12:04:05;;;;;;;;;;;;;;;;;;5079767;28;19930;-83
2023/05/29 12:06:30;;;;;;;;;;;;;;;;;;5083654;28;19912;-83
2023/05/29 12:08:56;;;;;;;;;;;;;;;;;;5087767;28;19966;-82
2023/05/29 12:11:21;;;;;;;;;;;;;;;;;;5084503;28;19912;-84
2023/05/29 12:13:46;;;;;;;;;;;;;;;;;;5086227;28;19923;-84
2023/05/29 12:16:12;;;;;;;;;;;;;;;;;;5081453;28;19967;-84
2023/05/29 12:18:37;;;;;;;;;;;;;;;;;;5080863;28;19916;-83
2023/05/29 12:21:02;;;;;;;;;;;;;;;;;;5088430;28;19964;-85
2023/05/29 12:23:28;;;;;;;;;;;;;;;;;;5082803;28;19916;-85
2023/05/29 12:25:53;;;;;;;;;;;;;;;;;;5072930;28;20395;-84
2023/05/29 12:28:18;;;;;;;;;;;;;;;;;;5075980;28;19923;-84
2023/05/29 12:30:45;;;;;;;;;;;;;;;;;;5074540;28;19923;-84
2023/05/29 12:33:11;;;;;;;;;;;;;;;;;;5071095;28;19926;-83
2023/05/29 12:35:36;;;;;;;;;;;;;;;;;;5073664;28;19987;-84
2023/05/29 12:38:02;;;;;;;;;;;;;;;;;;5072366;28;19967;-84
2023/05/29 12:40:27;;;;;;;;;;;;;;;;;;5060664;28;20367;-84
2023/05/29 12:42:52;;;;;;;;;;;;;;;;;;5061063;28;20019;-84
2023/05/29 12:45:18;;;;;;;;;;;;;;;;;;5073840;28;19913;-85
2023/05/29 12:47:43;;;;;;;;;;;;;;;;;;5074313;28;19920;-84
2023/05/29 12:50:09;;;;;;;;;;;;;;;;;;5073300;28;19920;-84
2023/05/29 12:52:34;;;;;;;;;;;;;;;;;;5073792;28;19974;-84
2023/05/29 12:54:59;;;;;;;;;;;;;;;;;;5079583;28;19920;-84
2023/05/29 12:57:25;;;;;;;;;;;;;;;;;;5094002;28;20014;-83
2023/05/29 12:59:50;;;;;;;;;;;;;;;;;;5087816;28;19966;-83
2023/05/29 13:02:16;;;;;;;;;;;;;;;;;;5093407;28;20381;-82
2023/05/29 13:04:41;;;;;;;;;;;;;;;;;;5081047;28;19954;-83
2023/05/29 13:07:06;;;;;;;;;;;;;;;;;;5077141;28;20019;-84
2023/05/29 13:09:32;;;;;;;;;;;;;;;;;;5091652;28;19912;-84
2023/05/29 13:11:57;;;;;;;;;;;;;;;;;;5091022;28;20279;-83
2023/05/29 13:14:22;;;;;;;;;;;;;;;;;;5092289;28;20081;-84
2023/05/29 13:16:48;;;;;;;;;;;;;;;;;;5092067;28;19926;-84
2023/05/29 13:19:13;;;;;;;;;;;;;;;;;;5091947;28;19981;-84
2023/05/29 13:21:40;;;;;;;;;;;;;;;;;;5089224;28;19917;-85
2023/05/29 13:24:05;;;;;;;;;;;;;;;;;;5085159;28;19916;-85
2023/05/29 13:26:30;;;;;;;;;;;;;;;;;;5077002;28;20007;-84
2023/05/29 13:28:55;;;;;;;;;;;;;;;;;;5082943;28;19926;-84
2023/05/29 13:31:21;;;;;;;;;;;;;;;;;;5093247;28;19915;-84
2023/05/29 13:33:46;;;;;;;;;;;;;;;;;;5096019;28;20393;-84
2023/05/29 13:36:12;;;;;;;;;;;;;;;;;;5101263;28;19928;-83
2023/05/29 13:38:37;;;;;;;;;;;;;;;;;;5098621;28;20361;-83
2023/05/29 13:41:03;;;;;;;;;;;;;;;;;;5097730;28;19916;-83
2023/05/29 13:43:28;;;;;;;;;;;;;;;;;;5095866;28;19944;-83
2023/05/29 13:45:53;;;;;;;;;;;;;;;;;;5090814;28;19927;-85
2023/05/29 13:48:19;;;;;;;;;;;;;;;;;;5096439;28;19912;-84
2023/05/29 13:50:44;;;;;;;;;;;;;;;;;;5096312;28;20433;-85
2023/05/29 13:53:10;;;;;;;;;;;;;;;;;;5094191;28;19923;-83
2023/05/29 13:55:35;;;;;;;;;;;;;;;;;;5093994;28;19943;-84
2023/05/29 13:58:01;;;;;;;;;;;;;;;;;;5097104;28;19912;-83
2023/05/29 14:00:26;;;;;;;;;;;;;;;;;;5096093;28;19985;-86
2023/05/29 14:02:52;;;;;;;;;;;;;;;;;;5086120;28;19912;-84
2023/05/29 14:05:17;;;;;;;;;;;;;;;;;;5095042;28;19916;-84
2023/05/29 14:07:42;;;;;;;;;;;;;;;;;;5088145;28;19917;-85
2023/05/29 14:10:08;;;;;;;;;;;;;;;;;;5094565;28;19916;-85
2023/05/29 14:12:33;;;;;;;;;;;;;;;;;;5094101;28;19920;-84
2023/05/29 14:14:58;;;;;;;;;;;;;;;;;;5094562;28;19999;-84
2023/05/29 14:17:25;;;;;;;;;;;;;;;;;;5094506;28;19920;-84
2023/05/29 14:19:51;;;;;;;;;;;;;;;;;;5094368;28;20280;-84
2023/05/29 14:22:16;;;;;;;;;;;;;;;;;;5094709;28;19937;-84
2023/05/29 14:24:42;;;;;;;;;;;;;;;;;;5092994;28;20325;-83
2023/05/29 14:27:07;;;;;;;;;;;;;;;;;;5094473;28;19912;-84
2023/05/29 14:29:32;;;;;;;;;;;;;;;;;;5104712;28;19916;-84
2023/05/29 14:31:58;;;;;;;;;;;;;;;;;;5093699;28;19919;-85
2023/05/29 14:34:23;;;;;;;;;;;;;;;;;;5093483;28;20034;-84
2023/05/29 14:36:48;;;;;;;;;;;;;;;;;;5099711;28;20338;-85
2023/05/29 14:39:14;;;;;;;;;;;;;;;;;;5099104;28;19965;-85
2023/05/29 14:41:39;;;;;;;;;;;;;;;;;;5087179;28;19912;-84
2023/05/29 14:44:04;;;;;;;;;;;;;;;;;;5093343;28;19916;-85
2023/05/29 14:46:31;;;;;;;;;;;;;;;;;;5093709;28;20065;-84
2023/05/29 14:48:57;;;;;;;;;;;;;;;;;;5094620;28;20397;-84
2023/05/29 14:51:24;;;;;;;;;;;;;;;;;;5093897;28;19915;-85
2023/05/29 14:53:49;;;;;;;;;;;;;;;;;;5093589;28;19916;-85
2023/05/29 14:56:14;;;;;;;;;;;;;;;;;;5091332;28;20014;-85
2023/05/29 14:58:41;;;;;;;;;;;;;;;;;;5094033;28;19938;-84
2023/05/29 15:01:07;;;;;;;;;;;;;;;;;;5093050;28;19991;-84
2023/05/29 15:03:34;;;;;;;;;;;;;;;;;;5093481;28;19923;-85
2023/05/29 15:06:00;;;;;;;;;;;;;;;;;;5093829;28;19912;-85
2023/05/29 15:08:25;;;;;;;;;;;;;;;;;;5088854;28;19938;-85
2023/05/29 15:10:50;;;;;;;;;;;;;;;;;;5092710;28;19912;-85
2023/05/29 15:13:16;;;;;;;;;;;;;;;;;;5070603;28;19916;-84
2023/05/29 15:15:41;;;;;;;;;;;;;;;;;;5089909;28;20295;-85
2023/05/29 15:18:06;;;;;;;;;;;;;;;;;;5093262;28;20007;-84
2023/05/29 15:20:32;;;;;;;;;;;;;;;;;;5092929;28;19976;-85
2023/05/29 15:22:57;;;;;;;;;;;;;;;;;;5091889;28;19966;-86
2023/05/29 15:25:23;;;;;;;;;;;;;;;;;;5092179;28;20051;-85
2023/05/29 15:27:48;;;;;;;;;;;;;;;;;;5092337;28;20392;-78
2023/05/29 15:30:13;;;;;;;;;;;;;;;;;;5088919;28;20002;-78
2023/05/29 15:32:40;;;;;;;;;;;;;;;;;;5092502;28;19922;-79
2023/05/29 15:35:06;;;;;;;;;;;;;;;;;;5092409;28;19956;-80
2023/05/29 15:37:31;;;;;;;;;;;;;;;;;;5091702;28;20005;-80
2023/05/29 15:39:57;;;;;;;;;;;;;;;;;;5092463;28;20374;-79
2023/05/29 15:42:22;;;;;;;;;;;;;;;;;;5092114;28;19916;-80
2023/05/29 15:44:48;;;;;;;;;;;;;;;;;;5080671;28;19939;-79
2023/05/29 15:47:13;;;;;;;;;;;;;;;;;;5086747;28;20422;-78
2023/05/29 15:49:38;;;;;;;;;;;;;;;;;;5082122;28;19941;-79
2023/05/29 15:52:04;;;;;;;;;;;;;;;;;;5091622;28;19942;-79
2023/05/29 15:54:29;;;;;;;;;;;;;;;;;;5092384;28;19978;-80
2023/05/29 15:56:54;;;;;;;;;;;;;;;;;;5091499;28;19943;-78
2023/05/29 15:59:20;;;;;;;;;;;;;;;;;;5091678;28;19963;-79
2023/05/29 16:01:45;;;;;;;;;;;;;;;;;;5091321;28;19966;-79
2023/05/29 16:04:12;;;;;;;;;;;;;;;;;;5081611;28;20002;-79
2023/05/29 16:06:38;;;;;;;;;;;;;;;;;;5090929;28;19916;-78
2023/05/29 16:09:03;;;;;;;;;;;;;;;;;;5082383;28;19916;-80
2023/05/29 16:11:29;;;;;;;;;;;;;;;;;;5091276;28;19966;-80
2023/05/29 16:13:54;;;;;;;;;;;;;;;;;;5091301;28;19927;-80
2023/05/29 16:16:20;;;;;;;;;;;;;;;;;;5091603;28;19927;-79
2023/05/29 16:18:45;;;;;;;;;;;;;;;;;;5091196;28;19921;-79
2023/05/29 16:21:12;;;;;;;;;;;;;;;;;;5085806;28;20002;-79
2023/05/29 16:23:37;;;;;;;;;;;;;;;;;;5089696;28;20393;-77
2023/05/29 16:26:02;;;;;;;;;;;;;;;;;;5081331;28;19916;-77
2023/05/29 16:28:28;;;;;;;;;;;;;;;;;;5091188;28;19919;-79
2023/05/29 16:30:53;;;;;;;;;;;;;;;;;;5088376;28;19955;-79
2023/05/29 16:33:18;;;;;;;;;;;;;;;;;;5091051;28;19911;-79
2023/05/29 16:35:46;;;;;;;;;;;;;;;;;;5081161;28;20369;-77
2023/05/29 16:38:11;;;;;;;;;;;;;;;;;;5091139;28;19982;-79
2023/05/29 16:40:37;;;;;;;;;;;;;;;;;;5090818;28;19916;-79
2023/05/29 16:43:02;;;;;;;;;;;;;;;;;;5090872;28;20271;-79
2023/05/29 16:45:28;;;;;;;;;;;;;;;;;;5091630;28;19916;-79
2023/05/29 16:47:53;;;;;;;;;;;;;;;;;;5082603;28;19920;-78
2023/05/29 16:50:20;;;;;;;;;;;;;;;;;;5090922;28;19923;-78
2023/05/29 16:52:46;;;;;;;;;;;;;;;;;;5072661;28;19950;-80
2023/05/29 16:55:12;;;;;;;;;;;;;;;;;;5090726;28;19966;-80
2023/05/29 16:57:41;;;;;;;;;;;;;;;;;;5092595;28;19912;-78
2023/05/29 17:00:07;;;;;;;;;;;;;;;;;;5064778;28;19916;-79
2023/05/29 17:02:32;;;;;;;;;;;;;;;;;;5095092;28;19964;-79
2023/05/29 17:04:58;;;;;;;;;;;;;;;;;;5093708;28;19974;-78
2023/05/29 17:07:25;;;;;;;;;;;;;;;;;;5094836;28;19916;-79
2023/05/29 17:09:50;;;;;;;;;;;;;;;;;;5094915;28;20290;-78
2023/05/29 17:12:15;;;;;;;;;;;;;;;;;;5082814;28;19912;-78
2023/05/29 17:14:41;;;;;;;;;;;;;;;;;;5094750;28;20323;-79
2023/05/29 17:17:06;;;;;;;;;;;;;;;;;;5094654;28;19923;-79
2023/05/29 17:19:31;;;;;;;;;;;;;;;;;;5066919;28;19916;-79
2023/05/29 17:21:57;;;;;;;;;;;;;;;;;;5078879;28;19919;-79
2023/05/29 17:24:23;;;;;;;;;;;;;;;;;;5093045;28;19962;-79
2023/05/29 17:26:48;;;;;;;;;;;;;;;;;;5094383;28;19916;-78
2023/05/29 17:29:15;;;;;;;;;;;;;;;;;;5077410;28;19920;-79
2023/05/29 17:31:40;;;;;;;;;;;;;;;;;;5105986;28;19912;-76
2023/05/29 17:34:06;;;;;;;;;;;;;;;;;;5084224;28;19970;-78
2023/05/29 17:36:31;;;;;;;;;;;;;;;;;;5093403;28;20001;-77
2023/05/29 17:38:57;;;;;;;;;;;;;;;;;;5072260;28;20340;-78
2023/05/29 17:41:22;;;;;;;;;;;;;;;;;;5086659;28;19912;-79
2023/05/29 17:43:47;;;;;;;;;;;;;;;;;;5083763;28;19916;-79
2023/05/29 17:46:13;;;;;;;;;;;;;;;;;;5085488;28;19970;-79
2023/05/29 17:48:39;;;;;;;;;;;;;;;;;;5094827;28;19916;-79
2023/05/29 17:51:04;;;;;;;;;;;;;;;;;;5084204;28;20318;-79
2023/05/29 17:53:30;;;;;;;;;;;;;;;;;;5080488;28;19933;-79
2023/05/29 17:55:55;;;;;;;;;;;;;;;;;;5094692;28;19924;-79
2023/05/29 17:58:21;;;;;;;;;;;;;;;;;;5094813;28;19934;-79
2023/05/29 18:00:46;;;;;;;;;;;;;;;;;;5083864;28;20015;-78
2023/05/29 18:03:12;;;;;;;;;;;;;;;;;;5073079;28;20465;-78
2023/05/29 18:05:37;;;;;;;;;;;;;;;;;;5076635;28;19916;-78
2023/05/29 18:08:03;;;;;;;;;;;;;;;;;;5075936;28;20007;-79
2023/05/29 18:10:28;;;;;;;;;;;;;;;;;;5095483;28;19923;-78
2023/05/29 18:12:53;;;;;;;;;;;;;;;;;;5094612;28;20410;-78
2023/05/29 18:15:19;;;;;;;;;;;;;;;;;;5095032;28;19938;-79
2023/05/29 18:17:44;;;;;;;;;;;;;;;;;;5094393;28;20006;-78
2023/05/29 18:20:09;;;;;;;;;;;;;;;;;;5084499;28;20500;-78
2023/05/29 18:22:35;;;;;;;;;;;;;;;;;;5089292;28;19918;-76
2023/05/29 18:25:00;;;;;;;;;;;;;;;;;;5057656;28;19965;-78
2023/05/29 18:27:25;;;;;;;;;;;;;;;;;;5094639;28;19912;-76
2023/05/29 18:29:54;;;;;;;;;;;;;;;;;;5096343;28;19916;-77
2023/05/29 18:32:19;;;;;;;;;;;;;;;;;;5091962;28;19912;-78
2023/05/29 18:34:44;;;;;;;;;;;;;;;;;;5093892;28;20077;-78
2023/05/29 18:37:10;;;;;;;;;;;;;;;;;;5093898;28;19931;-77
2023/05/29 18:39:35;;;;;;;;;;;;;;;;;;5093307;28;19916;-77
2023/05/29 18:42:01;;;;;;;;;;;;;;;;;;5102703;28;19912;-78
2023/05/29 18:44:26;;;;;;;;;;;;;;;;;;5095595;28;19939;-79
2023/05/29 18:46:51;;;;;;;;;;;;;;;;;;5093760;28;20035;-79
2023/05/29 18:49:17;;;;;;;;;;;;;;;;;;5093302;28;19924;-78
2023/05/29 18:51:42;;;;;;;;;;;;;;;;;;5093675;28;19919;-78
2023/05/29 18:54:09;;;;;;;;;;;;;;;;;;5075671;28;19923;-76